Airfield :
LOGIN :

Register | Disclaimer

   EN    FR    IT 

 










Legend :    VFR   Marginal VFR   IFR   Intensive IFR   Very Intensive IFR
Visi :
Ceiling :
>= 8 km
>= 3000ft
5 to 8 km
1000 to 3000 ft
1500m to 5 km
500 to 1000 ft
800 to 1500m
200 to 500 ft
< 800m
< 200 ft
Symbols :   Thunderstorms  Fog  Heavy snow  Heavy precipitations  Wind > 20 kt
SIGMETs :     Misc.  Thunderstorms  Icing  Turbulence  Mountain Waves  Volcanic Ashes






- Airport Elevation : 306 ft
- IATA code : EMA


EGNX - Nottingham East Midlands

CURRENT METAR :
  • 232220Z 28006KT 7000 BKN010 06/06 Q1026

EXPIRED METARs :
  • 232150Z 28004KT 7000 BKN011 07/06 Q1026
  • 232120Z 27005KT 220V310 7000 BKN011 06/06 Q1026
  • 232050Z 22006KT 6000 BKN010 06/05 Q1026
  • 232020Z 26005KT 6000 SCT006 BKN008 06/06 Q1027
  • 231950Z 29006KT 5000 HZ OVC003 06/06 Q1027

TAF AMD TAF EGNX
Valid from the 23 at 21:00 until the 24 at 18:00 UTC


232104Z 2321/2418 22006KT 6000 SCT003 BKN015
TEMPO 2321/2410 2000 BR OVC003
PROB30
TEMPO 2321/2410 0300 FG BKN001
BECMG 2410/2413 9999
PROB40
TEMPO 2413/2418 7000 BKN009
ATIS : +44 1332 852 852 (ext 3201)



MET'MAP, your aeronautical weather chart ! - Copyright ORBIFLY December 2007 - Disclaimer

ORBIFLY MET'MAP TEAM :

Programming & Development : Alexandra Zaïnal
Concept & original design : Baudouin d'Aumeries
Assistance for programming : Marc-Olivier Méhu
Technical & hardware support : Manuel Goepfert

Contact : metmap@orbifly.com




SOURCES & CREDITS :

   NOAA